Time;durP1;ratioP1;P1;durP2;ratioP2;P2;SDS_P1;SDS_P2;PMS_P1;PMS_P2;Temp;Humidity;BMP_temperature;BMP_pressure;BME280_temperature;BME280_humidity;BME280_pressure;Samples;Min_cycle;Max_cycle;Signal;HPM_P1;HPM_P2
2021/04/14 00:01:45;;;;;;;6.70;3.85;;;;;;;8.48;90.45;98783.27;1702694;83;21287;-94
2021/04/14 00:04:13;;;;;;;7.70;4.40;;;;;;;8.46;91.10;98778.56;1728942;83;21192;-93
2021/04/14 00:06:43;;;;;;;6.80;3.90;;;;;;;8.43;91.23;98779.07;1699443;84;21307;-93
2021/04/14 00:09:11;;;;;;;10.00;4.65;;;;;;;8.41;91.37;98780.39;1712382;83;21300;-94
2021/04/14 00:11:39;;;;;;;8.18;4.53;;;;;;;8.33;92.37;98779.67;1700977;84;21134;-94
2021/04/14 00:14:09;;;;;;;7.33;3.90;;;;;;;8.33;91.69;98771.91;1667540;86;21213;-94
2021/04/14 00:16:37;;;;;;;7.17;4.30;;;;;;;8.32;90.24;98772.35;1679923;82;21234;-94
2021/04/14 00:35:21;;;;;;;7.15;3.85;;;;;;;8.00;91.49;98770.43;1709393;81;21161;-94
2021/04/14 00:37:49;;;;;;;6.83;3.85;;;;;;;7.99;90.96;98775.18;1737638;83;21150;-94
2021/04/14 00:49:54;;;;;;;5.95;4.00;;;;;;;7.71;92.26;98770.53;1695744;81;21156;-92
2021/04/14 00:52:21;;;;;;;5.70;3.33;;;;;;;7.60;92.16;98769.02;1698401;84;21213;-96
2021/04/14 00:54:49;;;;;;;6.62;4.03;;;;;;;7.59;90.74;98772.05;1698497;84;21264;-92
2021/04/14 03:49:37;;;;;;;3.58;1.27;;;;;;;5.51;89.63;98737.95;1723266;80;21366;31
2021/04/14 04:11:38;;;;;;;1.42;0.90;;;;;;;5.22;89.07;98744.26;1678976;81;21221;31
2021/04/14 05:44:56;;;;;;;2.80;1.20;;;;;;;4.52;88.57;98786.41;1726137;81;21180;-82
2021/04/14 05:47:24;;;;;;;3.85;1.30;;;;;;;4.46;88.63;98786.45;1716404;83;21274;-90
2021/04/14 05:49:53;;;;;;;4.22;1.50;;;;;;;4.32;89.65;98789.53;1715729;82;21187;-91
2021/04/14 05:52:21;;;;;;;2.75;1.30;;;;;;;4.42;88.22;98787.34;1700522;84;21334;-90
2021/04/14 05:54:49;;;;;;;2.98;1.50;;;;;;;4.43;88.50;98792.05;1686105;84;21164;-87
2021/04/14 06:19:56;;;;;;;2.87;1.37;;;;;;;4.33;88.97;98804.09;1764018;79;21157;-85
2021/04/14 06:22:27;;;;;;;2.17;1.20;;;;;;;4.24;88.90;98815.70;1682333;80;21346;-86
2021/04/14 08:39:03;;;;;;;2.58;1.37;;;;;;;4.23;88.01;98888.64;1735402;79;21960;-85
2021/04/14 08:48:37;;;;;;;3.25;1.52;;;;;;;4.12;88.11;98884.38;1730160;79;21232;-83
2021/04/14 08:51:14;;;;;;;3.35;1.90;;;;;;;3.97;89.21;98878.82;1750719;79;21133;-83
2021/04/14 09:13:14;;;;;;;3.83;1.97;;;;;;;4.13;88.19;98889.94;1703844;79;21663;31
2021/04/14 09:15:59;;;;;;;6.55;3.00;;;;;;;4.11;88.97;98883.94;1653315;85;21970;-80
2021/04/14 09:18:40;;;;;;;3.80;2.15;;;;;;;4.08;88.33;98883.08;1690608;82;21248;-83
2021/04/14 09:21:21;;;;;;;4.53;2.10;;;;;;;4.15;88.02;98890.78;1698472;79;22080;-82
2021/04/14 09:24:07;;;;;;;5.05;2.30;;;;;;;4.08;88.24;98886.94;1724066;81;21681;-81
2021/04/14 09:26:40;;;;;;;4.97;1.98;;;;;;;4.10;89.49;98887.39;1719763;83;21221;-81
2021/04/14 09:29:36;;;;;;;3.92;1.90;;;;;;;4.20;89.05;98881.79;1701048;82;21634;-83
2021/04/14 09:32:13;;;;;;;5.35;2.00;;;;;;;4.24;89.00;98885.19;1711357;81;21176;-82
2021/04/14 09:34:49;;;;;;;5.00;2.72;;;;;;;4.26;88.69;98882.17;1733394;81;21292;-83
2021/04/14 09:37:23;;;;;;;3.10;1.67;;;;;;;4.24;88.80;98890.33;1725064;81;21200;-87
2021/04/14 09:40:01;;;;;;;4.45;2.10;;;;;;;4.22;88.46;98884.34;1782591;79;21257;-83
2021/04/14 09:42:40;;;;;;;3.95;1.72;;;;;;;4.31;87.61;98876.59;1785781;79;21171;-80
2021/04/14 09:45:31;;;;;;;5.22;1.75;;;;;;;4.32;87.75;98879.17;1764837;79;21170;-82
2021/04/14 09:48:04;;;;;;;4.35;1.60;;;;;;;4.31;88.69;98889.46;1775191;79;21247;-83
2021/04/14 09:50:37;;;;;;;5.72;1.70;;;;;;;4.38;88.38;98878.30;1760404;79;21103;-81
2021/04/14 09:53:26;;;;;;;2.90;1.40;;;;;;;4.42;87.97;98881.70;1705819;80;21294;-84
2021/04/14 09:56:14;;;;;;;2.25;1.40;;;;;;;4.46;88.83;98881.70;1682852;81;21333;-78
2021/04/14 09:58:59;;;;;;;5.37;2.00;;;;;;;4.46;88.19;98879.13;1713420;82;21289;-81
2021/04/14 10:01:31;;;;;;;8.93;2.70;;;;;;;4.66;87.58;98880.77;1719998;81;21526;-85
2021/04/14 10:04:06;;;;;;;2.85;1.42;;;;;;;4.68;87.56;98879.88;1715844;83;21269;-80
2021/04/14 10:06:35;;;;;;;4.05;2.37;;;;;;;4.67;87.54;98877.31;1712398;83;21327;-81
2021/04/14 10:09:12;;;;;;;3.22;1.77;;;;;;;4.67;87.77;98881.17;1711436;83;21536;-82
2021/04/14 10:11:40;;;;;;;2.87;1.50;;;;;;;4.67;89.31;98878.59;1696388;84;21248;-83
2021/04/14 10:14:25;;;;;;;2.77;1.47;;;;;;;4.78;87.20;98870.39;1708120;83;21233;-81
2021/04/14 10:16:55;;;;;;;;;;;;;;;4.69;87.51;98883.30;1706730;83;21681;-82
2021/04/14 10:19:30;;;;;;;3.00;1.35;;;;;;;4.74;87.90;98880.29;1705008;83;20196;-84
2021/04/14 10:22:21;;;;;;;3.45;1.40;;;;;;;4.77;87.03;98883.72;1712317;83;21293;-81
2021/04/14 10:24:50;;;;;;;4.87;1.65;;;;;;;4.83;86.62;98887.10;1707980;84;21333;-82
2021/04/14 10:27:20;;;;;;;2.15;1.30;;;;;;;4.82;86.37;98878.52;1714589;83;21313;-83
2021/04/14 10:29:48;;;;;;;3.60;1.45;;;;;;;4.76;86.22;98878.56;1751103;78;21305;-82
2021/04/14 10:32:20;;;;;;;2.33;1.40;;;;;;;4.75;86.99;98884.12;1796914;78;21329;-82
2021/04/14 10:34:49;;;;;;;4.42;1.65;;;;;;;4.74;86.64;98886.73;1779607;79;21307;-81
2021/04/14 10:37:22;;;;;;;3.10;1.40;;;;;;;4.84;86.22;98881.95;1734595;80;21170;-84
2021/04/14 10:39:51;;;;;;;2.80;1.40;;;;;;;4.81;86.69;98891.41;1760028;81;21148;-83
2021/04/14 10:42:24;;;;;;;2.55;1.32;;;;;;;4.81;86.65;98887.55;1763890;80;21221;-83
2021/04/14 10:44:55;;;;;;;1.98;1.00;;;;;;;4.88;86.85;98884.08;1745026;80;21387;-86
2021/04/14 10:47:29;;;;;;;1.10;0.80;;;;;;;4.87;85.82;98884.93;1725874;79;21300;-82
2021/04/14 10:50:04;;;;;;;2.47;1.40;;;;;;;4.81;85.54;98888.39;1736893;81;21271;-81
2021/04/14 10:52:33;;;;;;;1.15;0.90;;;;;;;4.76;85.79;98885.00;1680825;82;21213;-89
2021/04/14 10:55:10;;;;;;;2.87;0.90;;;;;;;4.90;85.88;98888.35;1704799;83;21178;-84
2021/04/14 10:57:46;;;;;;;2.08;1.00;;;;;;;4.90;85.81;98890.93;1672125;81;22406;-86
2021/04/14 11:00:43;;;;;;;1.87;0.82;;;;;;;4.89;85.62;98887.91;1665407;85;21308;-84
2021/04/14 11:03:19;;;;;;;2.30;0.80;;;;;;;4.93;85.82;98890.05;1740736;81;21590;-93
2021/04/14 11:05:52;;;;;;;0.93;0.70;;;;;;;4.92;85.42;98902.08;1727953;81;21130;-81
2021/04/14 11:08:21;;;;;;;2.02;0.93;;;;;;;4.95;85.41;98890.48;1709129;81;21168;-88
2021/04/14 11:10:50;;;;;;;1.52;1.10;;;;;;;5.04;85.52;98894.72;1733261;81;21118;-84
2021/04/14 11:13:22;;;;;;;2.60;1.20;;;;;;;5.04;85.84;98901.16;1708400;84;21284;-83
2021/04/14 11:15:52;;;;;;;1.02;0.80;;;;;;;5.07;85.69;98898.98;1713017;83;21304;-83
2021/04/14 11:18:34;;;;;;;1.42;0.90;;;;;;;5.08;84.75;98903.29;1696005;82;21292;-89
2021/04/14 11:23:37;;;;;;;2.10;1.20;;;;;;;5.11;83.79;98903.25;1698367;79;21199;-86
2021/04/14 11:26:18;;;;;;;1.25;0.75;;;;;;;5.10;84.08;98898.98;1757540;79;21276;-83
2021/04/14 11:28:55;;;;;;;0.70;0.50;;;;;;;5.10;82.95;98897.69;1723148;80;21244;-83
2021/04/14 11:31:33;;;;;;;1.55;0.65;;;;;;;5.13;83.51;98903.69;1754547;82;21570;-82
2021/04/14 11:34:24;;;;;;;0.93;0.70;;;;;;;5.03;82.86;98906.31;1670362;81;21339;-87
2021/04/14 11:37:20;;;;;;;1.77;0.88;;;;;;;5.19;82.89;98905.34;1720865;82;21157;-83
2021/04/14 11:39:58;;;;;;;2.52;1.17;;;;;;;5.18;83.38;98903.65;1705635;83;21256;-85
2021/04/14 11:42:50;;;;;;;4.03;1.30;;;;;;;5.37;83.21;98910.81;1695853;82;21256;-84
2021/04/14 11:45:32;;;;;;;0.70;0.60;;;;;;;5.41;83.12;98907.34;1692374;83;21213;-83
2021/04/14 11:48:10;;;;;;;2.50;0.60;;;;;;;5.39;82.45;98915.52;1711616;81;21995;-88
2021/04/14 11:50:41;;;;;;;1.22;0.80;;;;;;;5.39;82.18;98915.52;1704751;81;21284;-86
2021/04/14 11:53:30;;;;;;;1.27;0.70;;;;;;;5.44;82.46;98907.77;1692046;80;21126;-88
2021/04/14 11:56:02;;;;;;;1.40;0.80;;;;;;;5.43;83.62;98911.20;1666250;85;21204;-89
2021/04/14 11:58:46;;;;;;;2.70;0.82;;;;;;;5.44;82.39;98902.17;1712866;80;21297;-90
2021/04/14 12:01:24;;;;;;;1.32;0.68;;;;;;;5.45;82.13;98907.77;1634786;85;21154;-82
2021/04/14 12:03:52;;;;;;;1.87;0.72;;;;;;;5.60;81.51;98904.20;1650764;85;21415;-84
2021/04/14 12:06:22;;;;;;;1.30;0.70;;;;;;;5.61;81.96;98908.51;1636821;83;21271;-84
2021/04/14 12:08:52;;;;;;;0.70;0.60;;;;;;;5.60;81.29;98905.94;1655771;84;21310;-85
2021/04/14 12:11:24;;;;;;;2.17;1.10;;;;;;;5.54;81.31;98904.25;1709347;83;21285;-86
2021/04/14 12:13:53;;;;;;;4.12;1.62;;;;;;;5.50;81.43;98906.44;1724732;82;21287;-83
2021/04/14 12:16:20;;;;;;;1.00;0.75;;;;;;;5.56;81.36;98895.63;1663461;85;21300;-79
2021/04/14 12:18:48;;;;;;;4.65;1.37;;;;;;;5.57;81.86;98896.06;1662176;85;21177;-80
2021/04/14 12:21:16;;;;;;;0.82;0.60;;;;;;;5.69;82.16;98894.23;1652370;86;21754;-78
2021/04/14 12:23:43;;;;;;;1.85;1.10;;;;;;;5.69;81.03;98903.26;1705335;83;21198;-80
2021/04/14 12:26:11;;;;;;;1.42;0.90;;;;;;;5.82;81.33;98893.70;1656161;85;21222;-80
2021/04/14 12:28:38;;;;;;;1.27;0.80;;;;;;;5.92;81.44;98889.72;1677662;85;21297;-80
2021/04/14 12:31:06;;;;;;;0.90;0.68;;;;;;;6.00;81.85;98898.72;1657949;85;21302;-81
2021/04/14 12:33:35;;;;;;;2.30;0.88;;;;;;;5.98;80.68;98892.27;1642744;85;21183;-82
2021/04/14 12:36:02;;;;;;;1.15;0.70;;;;;;;6.09;81.06;98896.05;1717678;83;21224;-81
2021/04/14 12:38:30;;;;;;;0.50;0.50;;;;;;;6.17;80.76;98892.95;1721186;83;21265;-82
2021/04/14 12:40:59;;;;;;;3.08;0.90;;;;;;;6.08;80.67;98899.94;1707503;83;21624;-78
2021/04/14 12:43:27;;;;;;;1.35;0.78;;;;;;;6.30;79.80;98899.27;1717236;83;21186;-79
2021/04/14 12:45:56;;;;;;;1.15;0.72;;;;;;;6.25;79.54;98890.74;1714711;83;21315;-80
2021/04/14 12:48:28;;;;;;;3.60;1.30;;;;;;;6.37;78.94;98892.73;1714654;83;21174;-83
2021/04/14 12:51:19;;;;;;;1.10;0.75;;;;;;;6.44;79.75;98892.22;1654753;86;21175;-79
2021/04/14 12:54:11;;;;;;;2.10;0.90;;;;;;;6.45;77.95;98884.06;1716076;83;21166;-81
2021/04/14 12:56:47;;;;;;;0.98;0.70;;;;;;;6.59;78.84;98895.52;1719622;83;21323;-82
2021/04/14 12:59:34;;;;;;;1.90;0.90;;;;;;;6.48;76.81;98886.59;1824828;76;23454;-81
2021/04/14 13:02:20;;;;;;;1.90;0.82;;;;;;;6.27;77.66;98893.72;1806057;78;21592;-79
2021/04/14 13:05:05;;;;;;;2.25;0.70;;;;;;;6.35;77.54;98886.73;1796286;78;21310;-80
2021/04/14 13:07:55;;;;;;;0.80;0.53;;;;;;;6.29;77.43;98885.52;1795208;79;21227;-83
2021/04/14 13:13:27;;;;;;;1.25;0.53;;;;;;;6.44;76.62;98883.18;1682164;84;21161;-86
2021/04/14 13:16:10;;;;;;;1.20;0.65;;;;;;;6.42;75.47;98881.50;1755063;81;21267;-83
2021/04/14 13:18:39;;;;;;;0.82;0.50;;;;;;;6.43;75.97;98887.94;1738091;81;21299;-83
2021/04/14 13:21:18;;;;;;;2.08;0.80;;;;;;;6.42;76.41;98884.92;1726351;82;21350;-81
2021/04/14 13:24:00;;;;;;;1.87;0.70;;;;;;;6.43;75.27;98882.78;1730538;82;21252;-80
2021/04/14 13:26:36;;;;;;;7.75;1.80;;;;;;;6.47;76.05;98887.03;1733368;81;21315;-82
2021/04/14 13:29:31;;;;;;;4.47;1.57;;;;;;;6.50;75.52;98886.98;1741317;81;22291;-84
2021/04/14 13:32:19;;;;;;;1.72;0.90;;;;;;;6.45;74.48;98883.61;1733881;82;21310;-83
2021/04/14 13:34:58;;;;;;;1.17;0.80;;;;;;;6.36;73.94;98891.02;1728878;82;21243;-82
2021/04/14 13:37:35;;;;;;;0.78;0.70;;;;;;;6.29;75.74;98892.41;1741891;81;21200;-84
2021/04/14 13:40:12;;;;;;;0.75;0.70;;;;;;;6.26;76.22;98896.31;1741266;81;21272;-82
2021/04/14 13:42:47;;;;;;;1.72;0.85;;;;;;;6.24;76.20;98895.03;1729252;81;21263;-83
2021/04/14 13:45:43;;;;;;;1.50;0.98;;;;;;;6.29;76.30;98897.58;1727662;81;21144;-81
2021/04/14 13:48:22;;;;;;;2.08;1.15;;;;;;;6.30;76.32;98887.66;1731340;81;21272;-82
2021/04/14 13:51:01;;;;;;;1.75;0.70;;;;;;;6.20;77.55;98896.37;1731409;81;21182;-86
2021/04/14 13:53:36;;;;;;;1.82;0.80;;;;;;;6.17;75.78;98897.27;1784240;79;21302;-87
2021/04/14 13:56:20;;;;;;;1.30;0.80;;;;;;;6.17;74.98;98907.59;1799962;79;21248;-81
2021/04/14 13:59:31;;;;;;;2.27;0.93;;;;;;;6.12;75.50;98907.62;1791044;79;21098;-79
2021/04/14 14:02:28;;;;;;;0.80;0.80;;;;;;;6.05;77.43;98907.28;1786942;79;21148;-76
2021/04/14 14:05:03;;;;;;;3.50;0.95;;;;;;;6.08;76.61;98905.95;1768202;78;21152;-78
2021/04/14 14:08:04;;;;;;;1.57;1.00;;;;;;;6.06;77.28;98905.55;1793513;79;21593;-79
2021/04/14 14:11:05;;;;;;;1.45;0.80;;;;;;;6.14;77.35;98909.75;1791086;79;21144;-76
2021/04/14 14:13:36;;;;;;;3.45;1.30;;;;;;;6.03;77.07;98914.19;1791066;79;21157;-76
2021/04/14 14:16:15;;;;;;;3.02;1.40;;;;;;;6.06;77.25;98916.72;1787047;79;21126;-77
2021/04/14 14:19:01;;;;;;;2.67;1.32;;;;;;;5.92;78.92;98914.68;1786881;79;21168;-76
2021/04/14 14:21:32;;;;;;;3.80;1.50;;;;;;;5.93;78.60;98918.98;1786257;79;21150;-75
2021/04/14 14:24:00;;;;;;;2.58;1.20;;;;;;;5.95;79.83;98912.12;1770871;80;21173;-78
2021/04/14 14:26:32;;;;;;;1.60;0.95;;;;;;;5.92;79.17;98918.55;1774175;79;21644;-79
2021/04/14 14:29:00;;;;;;;1.20;0.88;;;;;;;5.74;79.49;98924.28;1799228;77;21190;-77
2021/04/14 14:31:30;;;;;;;2.02;1.22;;;;;;;5.84;79.64;98924.22;1791674;78;21145;-81
2021/04/14 14:33:59;;;;;;;2.55;1.40;;;;;;;5.88;80.20;98919.01;1798014;79;21137;-77
2021/04/14 14:36:42;;;;;;;2.62;1.30;;;;;;;5.94;80.28;98923.26;1747299;80;21182;-78
2021/04/14 14:39:27;;;;;;;2.20;1.20;;;;;;;5.91;80.23;98920.28;1749813;79;21159;-77
2021/04/14 14:42:09;;;;;;;1.92;1.10;;;;;;;5.80;80.06;98928.54;1793971;79;21129;-77
2021/04/14 14:45:00;;;;;;;2.85;1.35;;;;;;;5.77;80.13;98928.14;1785727;79;21576;-78
2021/04/14 14:47:29;;;;;;;2.65;1.30;;;;;;;5.85;79.84;98928.48;1767653;79;21950;-78
2021/04/14 14:50:02;;;;;;;2.25;1.25;;;;;;;5.70;80.34;98931.63;1720259;81;21181;-78
2021/04/14 14:52:30;;;;;;;1.85;1.20;;;;;;;5.68;80.76;98932.08;1789326;78;21257;-76
2021/04/14 14:55:00;;;;;;;2.55;0.93;;;;;;;5.68;80.34;98933.36;1741975;81;21152;-77
2021/04/14 14:57:33;;;;;;;4.85;1.50;;;;;;;5.58;82.05;98934.30;1757257;81;21125;-77
2021/04/14 15:00:12;;;;;;;2.22;1.27;;;;;;;5.66;82.23;98932.52;1769266;79;21160;-75
2021/04/14 15:02:39;;;;;;;2.33;1.35;;;;;;;5.63;80.95;98939.42;1777344;79;21149;-77
2021/04/14 15:05:09;;;;;;;4.30;1.60;;;;;;;5.52;81.04;98938.22;1740351;81;21605;-75
2021/04/14 15:07:41;;;;;;;4.20;1.45;;;;;;;5.62;81.38;98941.16;1772348;79;21150;-86
2021/04/14 15:10:13;;;;;;;3.83;1.65;;;;;;;5.62;81.14;98942.44;1753694;78;21187;-77
2021/04/14 15:12:40;;;;;;;6.08;1.60;;;;;;;5.60;81.04;98945.47;1749362;80;21636;-79
2021/04/14 15:15:09;;;;;;;2.37;1.52;;;;;;;5.59;81.45;98945.06;1761576;80;22171;-76
2021/04/14 15:17:36;;;;;;;2.40;1.45;;;;;;;5.52;81.98;98943.38;1711486;82;21175;-77
2021/04/14 15:20:08;;;;;;;3.30;1.70;;;;;;;5.60;81.38;98945.47;1749403;81;21168;-76
2021/04/14 15:22:35;;;;;;;2.70;1.62;;;;;;;5.56;81.68;98936.89;1745958;80;21196;-76
2021/04/14 15:25:06;;;;;;;2.70;1.62;;;;;;;5.51;82.35;98948.09;1744520;80;21253;-76
2021/04/14 15:27:35;;;;;;;5.65;2.30;;;;;;;5.54;81.78;98954.09;1727309;81;21136;-78
2021/04/14 15:30:17;;;;;;;6.45;2.42;;;;;;;5.53;81.66;98948.95;1749299;80;21619;-77
2021/04/14 15:32:46;;;;;;;3.22;1.77;;;;;;;5.56;81.27;98952.36;1709814;82;21180;-78
2021/04/14 15:35:20;;;;;;;3.50;1.95;;;;;;;5.39;81.47;98947.75;1744987;81;21198;-76
2021/04/14 15:37:49;;;;;;;4.28;2.00;;;;;;;5.36;82.23;98953.78;1714541;82;21176;-77
2021/04/14 15:40:22;;;;;;;4.30;1.80;;;;;;;5.31;82.53;98955.55;1744857;81;21189;-75
2021/04/14 15:42:55;;;;;;;3.58;1.70;;;;;;;5.27;82.55;98956.45;1747505;81;21162;-77
2021/04/14 15:45:23;;;;;;;4.35;1.62;;;;;;;5.19;82.74;98951.73;1686775;83;21170;-76
2021/04/14 15:47:52;;;;;;;3.12;1.70;;;;;;;5.22;82.89;98966.34;1749189;80;21167;-78
2021/04/14 15:50:22;;;;;;;2.98;1.65;;;;;;;5.26;82.57;98963.73;1750371;80;21162;-77
2021/04/14 15:52:50;;;;;;;2.70;1.80;;;;;;;5.25;82.93;98958.17;1768020;80;21642;-77
2021/04/14 15:55:22;;;;;;;3.50;1.52;;;;;;;5.28;82.29;98952.98;1747577;81;21178;-76
2021/04/14 15:58:06;;;;;;;3.47;1.70;;;;;;;5.23;82.49;98964.18;1747315;80;21171;-75
2021/04/14 16:00:38;;;;;;;3.92;1.87;;;;;;;5.13;83.33;98958.22;1716272;82;21189;-77
2021/04/14 16:03:03;;;;;;;3.17;1.70;;;;;;;5.15;82.77;98963.81;1747394;81;21195;-76
2021/04/14 16:05:30;;;;;;;3.25;1.80;;;;;;;5.07;83.75;98962.12;1747045;80;21179;-78
2021/04/14 16:07:59;;;;;;;3.72;1.87;;;;;;;5.08;83.67;98958.69;1712526;82;21711;-78
2021/04/14 16:10:27;;;;;;;4.33;2.33;;;;;;;5.09;83.59;98971.98;1757000;80;21630;-76
2021/04/14 16:12:55;;;;;;;5.65;2.62;;;;;;;5.10;84.17;98969.84;1737678;81;21166;-77
2021/04/14 16:15:23;;;;;;;6.83;2.05;;;;;;;5.10;83.68;98965.54;1768960;80;21705;-77
2021/04/14 16:17:51;;;;;;;4.95;1.62;;;;;;;5.08;83.93;98967.27;1739284;81;21596;-77
2021/04/14 16:20:19;;;;;;;4.03;1.98;;;;;;;4.99;84.53;98969.88;1765135;80;21164;-77
2021/04/14 16:22:47;;;;;;;3.83;1.80;;;;;;;5.06;84.40;98975.88;1768709;80;21151;-76
2021/04/14 16:25:15;;;;;;;4.58;2.17;;;;;;;5.10;83.37;98976.28;1760543;80;21165;-76
2021/04/14 16:27:43;;;;;;;4.00;1.90;;;;;;;5.06;84.39;98975.88;1770931;80;21159;-76
2021/04/14 16:30:11;;;;;;;4.47;2.40;;;;;;;5.06;83.45;98973.30;1762311;80;21163;-78
2021/04/14 16:32:39;;;;;;;7.17;2.25;;;;;;;4.92;84.88;98978.52;1734632;81;21674;-77
2021/04/14 16:35:09;;;;;;;5.12;2.30;;;;;;;4.98;84.32;98975.91;1751083;80;21191;-77
2021/04/14 16:37:36;;;;;;;3.83;1.80;;;;;;;5.02;83.36;98982.77;1762912;80;21629;-78
2021/04/14 16:40:06;;;;;;;4.35;1.57;;;;;;;4.97;84.52;98985.37;1762881;80;21170;-78
2021/04/14 16:42:34;;;;;;;3.20;1.75;;;;;;;4.97;84.01;98978.92;1763351;80;22312;-78
2021/04/14 16:45:02;;;;;;;4.28;1.65;;;;;;;4.95;84.52;98983.23;1762978;80;21134;-77
2021/04/14 16:47:30;;;;;;;3.95;1.52;;;;;;;4.88;84.94;98987.97;1763170;80;21178;-75
2021/04/14 16:49:58;;;;;;;3.77;1.98;;;;;;;4.92;84.84;98993.53;1762920;80;21215;-76
2021/04/14 16:52:26;;;;;;;4.67;2.00;;;;;;;4.90;85.34;98990.11;1762841;80;21190;-78
2021/04/14 16:54:53;;;;;;;5.08;2.10;;;;;;;4.89;85.19;98993.97;1762980;80;21139;-77
2021/04/14 16:57:21;;;;;;;2.83;1.70;;;;;;;4.89;85.19;98992.69;1762793;80;21171;-78
2021/04/14 16:59:50;;;;;;;4.10;1.80;;;;;;;4.86;85.15;98992.27;1762850;80;21178;-78
2021/04/14 17:02:18;;;;;;;3.52;2.22;;;;;;;4.84;85.02;99000.88;1763956;80;21151;-78
2021/04/14 17:04:47;;;;;;;2.05;1.30;;;;;;;4.80;85.14;98996.59;1762955;80;22225;-78
2021/04/14 17:07:14;;;;;;;2.50;1.40;;;;;;;4.75;84.94;98993.58;1737018;81;21182;-75
2021/04/14 17:09:41;;;;;;;4.08;1.98;;;;;;;4.68;85.82;98994.92;1767230;79;22265;-76
2021/04/14 17:12:11;;;;;;;2.70;1.57;;;;;;;4.71;84.91;98999.60;1775962;79;21189;-74
2021/04/14 17:14:38;;;;;;;3.35;1.67;;;;;;;4.63;86.51;99006.94;1775969;79;21194;-74
2021/04/14 17:17:06;;;;;;;3.85;2.00;;;;;;;4.67;85.34;99006.91;1775866;79;21486;-76
2021/04/14 17:19:33;;;;;;;3.55;2.10;;;;;;;4.69;85.40;99008.20;1775950;79;21178;-78
2021/04/14 17:22:01;;;;;;;5.42;2.20;;;;;;;4.65;86.20;99011.65;1776120;79;21157;-78
2021/04/14 17:24:29;;;;;;;3.50;1.82;;;;;;;4.69;85.45;99013.35;1775942;79;21173;-77
2021/04/14 17:26:56;;;;;;;3.55;1.80;;;;;;;4.67;85.63;99012.06;1776127;79;21177;-76
2021/04/14 17:29:24;;;;;;;4.05;1.77;;;;;;;4.61;86.32;99016.38;1776032;79;21193;-75
2021/04/14 17:31:51;;;;;;;4.90;1.87;;;;;;;4.62;86.30;99021.97;1785841;79;21160;-76
2021/04/14 17:34:19;;;;;;;3.20;1.77;;;;;;;4.61;86.50;99024.95;1788170;79;21274;-76
2021/04/14 17:36:47;;;;;;;3.25;1.65;;;;;;;4.61;86.71;99034.41;1776059;79;21138;-78
2021/04/14 17:39:18;;;;;;;2.70;1.50;;;;;;;4.61;86.11;99036.98;1776010;79;21722;-76
2021/04/14 17:41:48;;;;;;;3.15;1.60;;;;;;;4.55;86.29;99031.41;1776267;79;21699;-75
2021/04/14 17:44:19;;;;;;;3.75;1.75;;;;;;;4.48;86.94;99034.88;1777152;79;21665;-78
2021/04/14 17:46:47;;;;;;;2.90;1.40;;;;;;;4.54;86.38;99037.44;1780938;79;21159;-76
2021/04/14 17:49:15;;;;;;;2.80;1.50;;;;;;;4.52;86.33;99054.16;1793191;79;21170;-77
2021/04/14 17:51:43;;;;;;;2.22;1.10;;;;;;;4.53;85.77;99058.44;1776346;79;21579;-77
2021/04/14 17:54:11;;;;;;;3.92;1.50;;;;;;;4.54;85.79;99056.75;1776089;79;21179;-77
2021/04/14 17:56:39;;;;;;;5.40;1.90;;;;;;;4.54;86.07;99066.61;1776302;79;21174;-79
2021/04/14 17:59:07;;;;;;;3.80;1.90;;;;;;;4.55;85.80;99065.73;1776369;79;21607;-77
2021/04/14 18:01:35;;;;;;;4.08;1.62;;;;;;;4.54;85.96;99065.31;1776302;79;21173;-78
2021/04/14 18:04:03;;;;;;;2.42;1.50;;;;;;;4.62;85.36;99072.19;1776277;79;21181;-75
2021/04/14 18:06:31;;;;;;;4.75;1.65;;;;;;;4.55;86.25;99064.44;1744927;80;22015;-78
2021/04/14 18:08:58;;;;;;;3.40;1.77;;;;;;;4.54;86.50;99073.04;1776242;79;21745;-78
2021/04/14 18:11:26;;;;;;;5.47;2.05;;;;;;;4.60;85.62;99075.20;1773522;79;21182;-78
2021/04/14 18:13:54;;;;;;;4.55;2.35;;;;;;;4.56;86.56;99072.61;1773353;79;21657;-79
2021/04/14 18:16:24;;;;;;;5.50;2.65;;;;;;;4.56;86.43;99076.91;1773269;79;21166;-77
2021/04/14 18:18:52;;;;;;;4.85;2.08;;;;;;;4.60;86.26;99081.63;1776604;79;21179;-77
2021/04/14 18:21:21;;;;;;;3.42;1.98;;;;;;;4.54;86.88;99085.91;1773002;79;21138;-78
2021/04/14 18:23:50;;;;;;;2.40;1.52;;;;;;;4.57;85.68;99093.62;1773359;79;21166;-76
2021/04/14 18:26:18;;;;;;;5.05;1.85;;;;;;;4.54;86.65;99090.22;1773287;79;21603;-77
2021/04/14 18:28:46;;;;;;;5.17;2.83;;;;;;;4.55;86.09;99095.77;1773518;79;21688;-78
2021/04/14 18:31:14;;;;;;;3.80;1.85;;;;;;;4.58;85.38;99098.36;1773346;79;21170;-78
2021/04/14 18:33:42;;;;;;;7.17;2.30;;;;;;;4.52;86.43;99098.38;1773856;79;21169;-77
2021/04/14 18:36:14;;;;;;;3.87;1.92;;;;;;;4.49;86.19;99104.36;1773374;79;21673;-78
2021/04/14 18:38:42;;;;;;;3.52;1.98;;;;;;;4.46;85.79;99104.81;1751860;79;21686;-76
2021/04/14 18:41:11;;;;;;;3.90;1.77;;;;;;;4.39;86.14;99101.36;1773343;79;21679;-75
2021/04/14 18:43:38;;;;;;;3.12;1.80;;;;;;;4.41;85.34;99101.37;1773388;79;21165;-78
2021/04/14 18:46:06;;;;;;;3.77;1.40;;;;;;;4.36;86.22;99104.80;1773287;81;21166;-78
2021/04/14 18:48:33;;;;;;;3.65;1.65;;;;;;;4.32;88.17;99108.67;1773409;79;22313;-77
2021/04/14 18:51:01;;;;;;;4.55;1.82;;;;;;;4.31;88.05;99112.09;1773457;79;21575;-78
2021/04/14 18:53:30;;;;;;;3.92;1.72;;;;;;;4.27;88.04;99114.23;1773294;79;21179;-78
2021/04/14 18:55:58;;;;;;;3.92;1.80;;;;;;;4.28;87.40;99106.52;1773195;79;21142;-75
2021/04/14 18:58:26;;;;;;;5.33;1.75;;;;;;;4.21;88.42;99116.37;1773147;79;21189;-76
2021/04/14 19:00:54;;;;;;;4.83;2.00;;;;;;;4.22;87.55;99113.36;1773083;79;21185;-78
2021/04/14 19:03:22;;;;;;;4.17;2.00;;;;;;;4.12;88.02;99113.37;1773117;81;21181;-79
2021/04/14 19:05:50;;;;;;;3.95;1.92;;;;;;;4.11;88.27;99113.36;1773122;79;21142;-77
2021/04/14 19:08:18;;;;;;;4.75;2.10;;;;;;;4.04;88.77;99118.05;1772979;79;21513;-78
2021/04/14 19:10:45;;;;;;;2.95;1.75;;;;;;;4.05;87.59;99117.21;1772823;79;21665;-78
2021/04/14 19:13:13;;;;;;;5.17;2.42;;;;;;;3.95;88.76;99115.05;1772947;79;21666;-78
2021/04/14 19:15:40;;;;;;;5.30;2.72;;;;;;;3.92;88.72;99115.91;1772890;81;21633;-76
2021/04/14 19:18:08;;;;;;;7.25;3.83;;;;;;;3.93;88.63;99116.76;1772981;79;21185;-78
2021/04/14 19:20:40;;;;;;;5.12;2.45;;;;;;;3.88;89.65;99124.87;1773102;79;21197;-77
2021/04/14 19:23:09;;;;;;;4.20;2.05;;;;;;;3.94;87.73;99121.91;1772917;79;21170;-77
2021/04/14 19:25:40;;;;;;;4.42;2.00;;;;;;;3.90;88.79;99125.74;1773927;79;21596;-76
2021/04/14 19:28:10;;;;;;;6.53;2.50;;;;;;;3.85;89.64;99123.61;1772936;79;21657;-78
2021/04/14 19:30:41;;;;;;;4.70;2.40;;;;;;;3.91;88.53;99126.19;1773015;79;21629;-76
2021/04/14 19:33:10;;;;;;;4.28;2.25;;;;;;;3.85;89.46;99126.17;1738891;81;21669;-76
2021/04/14 19:35:38;;;;;;;3.55;1.95;;;;;;;3.83;89.53;99133.88;1755760;81;21449;-78
2021/04/14 19:38:11;;;;;;;6.10;2.30;;;;;;;3.84;89.05;99130.88;1780662;79;21165;-78
2021/04/14 19:40:39;;;;;;;4.65;2.10;;;;;;;3.85;89.07;99132.17;1773297;79;21223;-78
2021/04/14 19:43:06;;;;;;;5.72;2.15;;;;;;;3.80;89.65;99139.03;1767791;79;22027;-78
2021/04/14 19:45:35;;;;;;;4.20;2.12;;;;;;;3.78;89.44;99141.59;1757540;79;21169;-77
2021/04/14 19:48:04;;;;;;;4.90;2.10;;;;;;;3.77;89.56;99141.14;1773041;79;21165;-75
2021/04/14 19:50:38;;;;;;;4.85;2.90;;;;;;;3.81;87.72;99131.73;1774226;79;21147;-78
2021/04/14 19:53:08;;;;;;;2.08;1.37;;;;;;;3.72;88.81;99135.55;1773461;79;21174;-78
2021/04/14 19:55:36;;;;;;;2.62;1.40;;;;;;;3.64;89.52;99136.84;1773153;79;21690;-78
2021/04/14 19:58:04;;;;;;;2.37;1.52;;;;;;;3.68;88.13;99137.28;1773186;79;21190;-76
2021/04/14 20:00:33;;;;;;;3.30;1.90;;;;;;;3.61;90.01;99135.53;1768340;79;21182;-78
2021/04/14 20:03:01;;;;;;;2.27;1.50;;;;;;;3.67;89.25;99143.26;1773035;79;21503;-78
2021/04/14 20:05:29;;;;;;;2.42;1.52;;;;;;;3.62;90.21;99141.12;1773811;79;21200;-79
2021/04/14 20:07:57;;;;;;;5.00;1.67;;;;;;;3.64;89.63;99139.41;1772939;79;21177;-78
2021/04/14 20:10:30;;;;;;;3.08;1.45;;;;;;;3.62;89.75;99142.41;1773780;79;21213;-77
2021/04/14 20:12:58;;;;;;;3.10;1.47;;;;;;;3.64;89.13;99147.13;1780266;79;21614;-75
2021/04/14 20:15:27;;;;;;;2.40;1.50;;;;;;;3.68;89.24;99147.56;1783851;79;21687;-77
2021/04/14 20:17:55;;;;;;;3.25;1.80;;;;;;;3.71;89.23;99150.56;1776179;79;21590;-77
2021/04/14 20:20:24;;;;;;;2.83;1.80;;;;;;;3.70;89.28;99148.83;1746955;81;21158;-78
2021/04/14 20:22:51;;;;;;;5.45;1.70;;;;;;;3.68;89.64;99164.28;1783197;79;21167;-77
2021/04/14 20:25:24;;;;;;;5.45;1.92;;;;;;;3.67;89.28;99150.13;1783485;79;21184;-77